San Francisco, CA (94163)

8:26 AM PDT on September 02, 2015 (GMT -0700)
Weather Underground HQ | | Change Station
CLOSE
Current Station
Personal Weather Station
Location: San Francisco, CA
Elevation: 118 ft
Nearby Weather Stations

Elev 118 ft 37.79 °N, 122.40 °W | Updated 0 second ago

Overcast
Overcast
62.6 °F
Feels Like 62.6 °F
N
3.5
Wind Variable Wind from East
Gusts 7.0 mph

Today
High -- | Low -- °F
--% Chance of Precip.
Yesterday
High -- | Low -- °F
Precip. -- in
6:40 AM 7:37 PM
Waning Gibbous, 79% visible
Pressure 29.95 in
Visibility 10.0 miles
Clouds Overcast 1700 ft
Dew Point 56 °F
Humidity 81%
Rainfall 0.00 in
Snow Depth Not available.
UV 0 out of 12
Pollen 7.10 out of 12
Air Quality Not available.
Flu Activity Not available.
METAR KOAK 021453Z 24009G15KT 10SM OVC017 18/13 A2995 RMK AO2 SLP141 T01780133 53007
Pressure 29.95 in
Visibility 10.0 miles
Clouds Overcast 1700 ft
Dew Point 56 °F
Humidity 81%
Rainfall 0.00 in
Snow Depth Not available.
UV 0 out of 12
Pollen 7.10 out of 12
Air Quality Not available.
Flu Activity Not available.
METAR KOAK 021453Z 24009G15KT 10SM OVC017 18/13 A2995 RMK AO2 SLP141 T01780133 53007

10-Day Weather Forecast

×

Almanac

Astronomy

Sep. 02, 2015 Rise Set
Actual Time
Civil Twilight
Nautical Twilight
Astronomical Twilight
Moon
Length of Visible Light
Length of Day
Tomorrow will be .
, % of the Moon is Illuminated

Today's Extremes

State Highs State Lows

Community

WunderPhotos

Upload Photos

1,851,770 photos uploaded!

WunderBlogs® & News

Nearby

Air Quality

  Air Quality AQ Index Pollutant
Not available.

Snow Depth

Station Depth Elevation

Earthquake Activity

City Distance Mag. Time & Date
Minimum magnitude displayed is 2.5.

Coastal Water Temperatures

Place Temperature

Stations

Nearby Weather Stations

Station Location Temp. Windchill Dew Point Humidity Wind Precip. Elev Updated Type